createdAt,value
2018-08-22T00:02:06.498Z,38.32
2018-08-22T00:04:42.488Z,38.13
2018-08-22T00:07:18.333Z,38.34
2018-08-22T00:09:54.365Z,37.94
2018-08-22T00:12:30.487Z,38.08
2018-08-22T00:15:07.001Z,38.52
2018-08-22T00:17:43.130Z,38.37
2018-08-22T00:20:19.459Z,38.01
2018-08-22T00:22:55.606Z,37.67
2018-08-22T00:25:32.138Z,38.58
2018-08-22T00:28:08.156Z,38.55
2018-08-22T00:30:44.416Z,39.04
2018-08-22T00:33:20.639Z,38.49
2018-08-22T00:35:56.880Z,38.64
2018-08-22T00:38:33.088Z,38.36
2018-08-22T00:41:09.168Z,38.11
2018-08-22T00:43:45.355Z,39.10
2018-08-22T00:46:21.144Z,38.44
2018-08-22T00:48:57.039Z,38.55
2018-08-22T00:51:32.624Z,38.66
2018-08-22T00:54:08.424Z,38.82
2018-08-22T00:56:44.186Z,38.71
2018-08-22T00:59:20.516Z,38.96
2018-08-22T01:01:56.159Z,38.25
2018-08-22T01:04:31.798Z,39.28
2018-08-22T01:07:07.333Z,38.67
2018-08-22T01:09:42.908Z,39.00
2018-08-22T01:12:18.857Z,38.70
2018-08-22T01:14:55.182Z,39.08
2018-08-22T01:17:30.975Z,39.33
2018-08-22T01:20:06.817Z,38.27
2018-08-22T01:22:42.540Z,38.17
2018-08-22T01:25:18.365Z,39.40
2018-08-22T01:27:53.949Z,38.68
2018-08-22T01:30:29.829Z,38.18
2018-08-22T01:33:05.206Z,38.73
2018-08-22T01:35:41.123Z,39.21
2018-08-22T01:38:17.170Z,39.30
2018-08-22T01:40:52.920Z,39.46
2018-08-22T01:43:28.528Z,39.42
2018-08-22T01:46:04.473Z,38.84
2018-08-22T01:48:40.156Z,38.17
2018-08-22T01:51:16.152Z,38.63
2018-08-22T01:53:51.573Z,38.51
2018-08-22T01:56:27.493Z,38.82
2018-08-22T01:59:02.962Z,39.31
2018-08-22T02:01:38.884Z,38.53
2018-08-22T02:04:14.454Z,39.57
2018-08-22T02:06:50.169Z,39.60
2018-08-22T02:09:25.902Z,38.68
2018-08-22T02:12:01.572Z,39.54
2018-08-22T02:14:37.368Z,38.90
2018-08-22T02:17:13.172Z,38.76
2018-08-22T02:19:49.038Z,39.61
2018-08-22T02:22:24.417Z,38.40
2018-08-22T02:25:00.067Z,38.69
2018-08-22T02:27:35.934Z,38.46
2018-08-22T02:30:11.832Z,39.39
2018-08-22T02:32:47.296Z,38.49
2018-08-22T02:35:23.176Z,38.28
2018-08-22T02:37:58.764Z,38.58
2018-08-22T02:40:34.190Z,38.92
2018-08-22T02:43:11.385Z,38.27
2018-08-22T02:45:46.947Z,38.93
2018-08-22T02:48:22.799Z,38.57
2018-08-22T02:50:59.620Z,38.94
2018-08-22T02:53:35.589Z,38.26
2018-08-22T02:56:11.420Z,38.92
2018-08-22T02:58:47.172Z,38.83
2018-08-22T03:01:23.214Z,38.34
2018-08-22T03:03:58.775Z,39.33
2018-08-22T03:06:34.593Z,39.21
2018-08-22T03:09:12.192Z,38.82
2018-08-22T03:11:48.048Z,39.27
2018-08-22T03:14:23.951Z,38.92
2018-08-22T03:16:59.883Z,38.42
2018-08-22T03:19:37.984Z,38.40
2018-08-22T03:22:13.978Z,39.14
2018-08-22T03:24:49.926Z,39.39
2018-08-22T03:27:25.897Z,39.42
2018-08-22T03:30:01.774Z,39.64
2018-08-22T03:32:37.504Z,39.80
2018-08-22T03:35:13.327Z,38.44
2018-08-22T03:37:49.209Z,38.51
2018-08-22T03:40:25.170Z,39.35
2018-08-22T03:43:00.896Z,40.20
2018-08-22T03:45:36.972Z,39.53
2018-08-22T03:48:10.782Z,39.83
2018-08-22T03:50:46.538Z,38.87
2018-08-22T03:53:22.428Z,39.46
2018-08-22T03:55:58.174Z,39.34
2018-08-22T03:58:34.118Z,38.96
2018-08-22T04:01:10.017Z,40.07
2018-08-22T04:03:46.066Z,39.89
2018-08-22T04:06:21.591Z,39.70
2018-08-22T04:08:57.653Z,39.92
2018-08-22T04:11:33.331Z,40.06
2018-08-22T04:14:08.925Z,40.91
2018-08-22T04:16:44.995Z,40.18
2018-08-22T04:19:20.700Z,40.89
2018-08-22T04:21:56.602Z,40.45
2018-08-22T04:24:32.560Z,40.04
2018-08-22T04:27:09.334Z,40.21
2018-08-22T04:29:45.219Z,40.44
2018-08-22T04:32:21.165Z,41.00
2018-08-22T04:34:57.254Z,41.49
2018-08-22T04:37:33.639Z,40.81
2018-08-22T04:40:10.198Z,41.40
2018-08-22T04:42:46.553Z,41.28
2018-08-22T04:45:22.822Z,41.69
2018-08-22T04:47:59.342Z,41.16
2018-08-22T04:50:35.401Z,41.26
2018-08-22T04:53:11.621Z,42.65
2018-08-22T04:55:47.980Z,42.15
2018-08-22T04:58:24.404Z,42.37
2018-08-22T05:01:01.030Z,42.07
2018-08-22T05:03:37.068Z,42.46
2018-08-22T05:06:13.259Z,42.41
2018-08-22T05:08:49.490Z,43.15
2018-08-22T05:11:25.627Z,42.58
2018-08-22T05:16:09.260Z,42.99
2018-08-22T05:18:45.393Z,43.63
2018-08-22T05:21:21.441Z,42.78
2018-08-22T05:23:57.437Z,42.73
2018-08-22T05:26:33.664Z,42.76
2018-08-22T05:29:10.236Z,43.18
2018-08-22T05:31:46.418Z,42.79
2018-08-22T05:34:22.360Z,43.91
2018-08-22T05:36:58.240Z,43.59
2018-08-22T05:39:34.361Z,43.28
2018-08-22T05:42:10.258Z,43.71
2018-08-22T05:44:46.254Z,44.09
2018-08-22T05:47:22.426Z,43.46
2018-08-22T05:49:59.224Z,43.77
2018-08-22T05:52:36.004Z,43.56
2018-08-22T05:55:12.021Z,43.60
2018-08-22T05:57:48.432Z,43.23
2018-08-22T06:00:24.567Z,43.83
2018-08-22T06:03:01.100Z,43.91
2018-08-22T06:05:37.253Z,43.78
2018-08-22T06:08:13.300Z,44.35
2018-08-22T06:10:49.444Z,43.68
2018-08-22T06:13:25.889Z,43.67
2018-08-22T06:16:02.280Z,43.63
2018-08-22T06:18:38.257Z,44.14
2018-08-22T06:21:14.941Z,44.38
2018-08-22T06:23:51.196Z,45.13
2018-08-22T06:26:27.449Z,44.01
2018-08-22T06:29:03.593Z,44.43
2018-08-22T06:31:39.906Z,45.06
2018-08-22T06:34:16.229Z,45.23
2018-08-22T06:36:52.477Z,44.52
2018-08-22T06:39:29.285Z,44.92
2018-08-22T06:42:05.441Z,45.50
2018-08-22T06:44:41.390Z,43.54
2018-08-22T06:47:17.590Z,43.98
2018-08-22T06:49:54.025Z,43.65
2018-08-22T06:52:30.611Z,43.22
2018-08-22T06:55:06.976Z,43.01
2018-08-22T06:57:43.448Z,43.41
2018-08-22T07:00:19.481Z,42.60
2018-08-22T07:02:55.701Z,43.25
2018-08-22T07:05:31.976Z,43.06
2018-08-22T07:08:08.576Z,42.33
2018-08-22T07:10:45.077Z,42.41
2018-08-22T07:13:22.252Z,42.69
2018-08-22T07:15:58.397Z,42.61
2018-08-22T07:18:35.144Z,42.80
2018-08-22T07:21:11.261Z,42.55
2018-08-22T07:23:47.297Z,42.50
2018-08-22T07:26:23.253Z,42.52
2018-08-22T07:28:59.468Z,41.81
2018-08-22T07:31:35.291Z,42.37
2018-08-22T07:34:11.318Z,42.46
2018-08-22T07:36:47.271Z,42.43
2018-08-22T07:39:23.409Z,42.17
2018-08-22T07:41:59.639Z,42.91
2018-08-22T07:44:35.719Z,42.48
2018-08-22T07:47:12.014Z,42.13
2018-08-22T07:49:48.098Z,41.70
2018-08-22T07:52:24.090Z,42.64
2018-08-22T07:57:24.296Z,41.80
2018-08-22T08:00:00.576Z,41.95
2018-08-22T08:02:37.313Z,42.06
2018-08-22T08:05:13.480Z,41.21
2018-08-22T08:07:49.487Z,41.68
2018-08-22T08:10:29.506Z,41.50
2018-08-22T08:13:06.480Z,41.20
2018-08-22T08:15:42.699Z,41.42
2018-08-22T08:18:19.000Z,41.21
2018-08-22T08:20:54.977Z,41.33
2018-08-22T08:23:32.249Z,41.57
2018-08-22T08:26:08.333Z,41.82
2018-08-22T08:28:44.302Z,41.34
2018-08-22T08:31:20.301Z,41.90
2018-08-22T08:33:56.995Z,40.87
2018-08-22T08:36:33.025Z,41.49
2018-08-22T08:39:12.649Z,41.99
2018-08-22T08:41:48.731Z,41.56
2018-08-22T08:44:25.317Z,41.43
2018-08-22T08:47:01.480Z,41.14
2018-08-22T08:49:37.606Z,41.50
2018-08-22T08:52:13.790Z,42.00
2018-08-22T08:54:50.061Z,41.77
2018-08-22T08:57:26.349Z,40.96
2018-08-22T09:00:03.066Z,40.73
2018-08-22T09:02:39.268Z,40.70
2018-08-22T09:05:15.548Z,41.35
2018-08-22T09:07:51.562Z,40.74
2018-08-22T09:10:27.522Z,41.42
2018-08-22T09:13:03.477Z,41.06
2018-08-22T09:15:39.543Z,40.88
2018-08-22T09:18:16.145Z,41.77
2018-08-22T09:20:52.330Z,41.22
2018-08-22T09:23:28.539Z,41.68
2018-08-22T09:26:04.653Z,41.07
2018-08-22T09:28:41.129Z,40.58
2018-08-22T09:31:17.330Z,41.17
2018-08-22T09:33:53.563Z,41.01
2018-08-22T09:36:30.746Z,41.17
2018-08-22T09:39:07.554Z,41.32
2018-08-22T09:41:43.505Z,41.40
2018-08-22T09:44:19.533Z,41.61
2018-08-22T09:46:55.552Z,41.07
2018-08-22T09:49:32.118Z,41.51
2018-08-22T09:52:08.387Z,40.63
2018-08-22T09:56:45.367Z,40.50
2018-08-22T09:59:21.560Z,41.59
2018-08-22T10:01:57.837Z,40.41
2018-08-22T10:04:34.464Z,40.66
2018-08-22T10:07:10.471Z,40.47
2018-08-22T10:09:47.282Z,41.48
2018-08-22T10:12:23.348Z,40.50
2018-08-22T10:15:00.669Z,40.61
2018-08-22T10:17:38.019Z,40.88
2018-08-22T10:20:15.511Z,41.14
2018-08-22T10:22:53.542Z,41.45
2018-08-22T10:25:30.745Z,40.65
2018-08-22T10:28:07.359Z,41.00
2018-08-22T10:30:44.522Z,40.74
2018-08-22T10:33:21.530Z,40.37
2018-08-22T10:35:57.352Z,40.79
2018-08-22T10:38:33.450Z,41.50
2018-08-22T10:41:09.740Z,40.97
2018-08-22T10:43:46.358Z,40.77
2018-08-22T10:46:22.352Z,40.63
2018-08-22T10:48:58.691Z,40.94
2018-08-22T10:51:35.177Z,40.15
2018-08-22T10:54:11.553Z,40.37
2018-08-22T10:56:47.528Z,40.85
2018-08-22T10:59:23.381Z,40.62
2018-08-22T11:01:59.700Z,40.20
2018-08-22T11:04:36.117Z,40.69
2018-08-22T11:07:12.586Z,41.32
2018-08-22T11:09:48.726Z,40.93
2018-08-22T11:12:24.736Z,40.74
2018-08-22T11:15:00.810Z,41.04
2018-08-22T11:17:37.034Z,41.35
2018-08-22T11:20:13.271Z,40.91
2018-08-22T11:23:03.042Z,40.47
2018-08-22T11:25:52.939Z,41.36
2018-08-22T11:28:43.364Z,41.30
2018-08-22T11:31:33.790Z,41.20
2018-08-22T11:34:23.798Z,40.28
2018-08-22T11:37:13.348Z,40.86
2018-08-22T11:39:51.986Z,40.44
2018-08-22T11:42:28.310Z,40.08
2018-08-22T11:45:04.544Z,41.04
2018-08-22T11:47:41.307Z,40.74
2018-08-22T11:50:17.264Z,41.01
2018-08-22T11:52:53.590Z,41.41
2018-08-22T11:55:30.079Z,40.75
2018-08-22T11:58:06.573Z,41.31
2018-08-22T12:00:42.550Z,40.76
2018-08-22T12:03:18.549Z,40.63
2018-08-22T12:05:55.045Z,40.76
2018-08-22T12:08:31.759Z,40.64
2018-08-22T12:11:07.791Z,39.97
2018-08-22T12:13:44.380Z,40.17
2018-08-22T12:16:20.471Z,40.94
2018-08-22T12:18:56.707Z,40.78
2018-08-22T12:21:33.123Z,40.93
2018-08-22T12:24:09.170Z,40.41
2018-08-22T12:26:45.377Z,40.46
2018-08-22T12:29:21.733Z,40.58
2018-08-22T12:31:58.389Z,40.76
2018-08-22T12:34:34.396Z,40.59
2018-08-22T12:37:10.853Z,40.78
2018-08-22T12:39:47.014Z,40.63
2018-08-22T12:42:23.202Z,40.74
2018-08-22T12:44:59.876Z,40.10
2018-08-22T12:47:36.625Z,40.67
2018-08-22T12:50:13.084Z,40.25
2018-08-22T12:56:56.669Z,40.37
2018-08-22T12:59:32.674Z,39.84
2018-08-22T13:02:08.740Z,40.80
2018-08-22T13:04:44.905Z,40.85
2018-08-22T13:07:20.685Z,40.90
2018-08-22T13:09:56.796Z,40.81
2018-08-22T13:12:33.813Z,40.61
2018-08-22T13:15:11.248Z,40.53
2018-08-22T13:18:37.604Z,40.63
2018-08-22T13:21:14.080Z,40.25
2018-08-22T13:23:50.404Z,40.65
2018-08-22T13:26:26.408Z,40.71
2018-08-22T13:29:02.677Z,40.98
2018-08-22T13:31:39.065Z,40.50
2018-08-22T13:34:15.084Z,40.03
2018-08-22T13:36:51.431Z,40.35
2018-08-22T13:39:27.352Z,39.71
2018-08-22T13:42:03.345Z,39.45
2018-08-22T13:44:39.440Z,39.71
2018-08-22T13:47:15.827Z,40.34
2018-08-22T13:49:52.027Z,40.23
2018-08-22T13:52:28.209Z,40.68
2018-08-22T13:55:04.418Z,40.25
2018-08-22T13:57:40.445Z,40.58
2018-08-22T14:01:39.554Z,40.70
2018-08-22T14:04:15.672Z,39.93
2018-08-22T14:06:52.263Z,40.09
2018-08-22T14:09:28.357Z,40.62
2018-08-22T14:12:04.594Z,39.37
2018-08-22T14:14:40.541Z,39.66
2018-08-22T14:17:16.357Z,39.96
2018-08-22T14:19:52.645Z,40.08
2018-08-22T14:22:28.662Z,40.01
2018-08-22T14:25:05.009Z,39.50
2018-08-22T14:27:41.313Z,40.04
2018-08-22T14:30:17.430Z,40.54
2018-08-22T14:32:53.784Z,39.89
2018-08-22T14:35:29.788Z,39.97
2018-08-22T14:38:05.773Z,40.16
2018-08-22T14:40:41.844Z,39.74
2018-08-22T14:43:18.605Z,40.33
2018-08-22T14:45:54.609Z,40.91
2018-08-22T14:48:30.673Z,40.14
2018-08-22T14:51:06.842Z,39.59
2018-08-22T14:53:43.344Z,39.98
2018-08-22T14:56:19.896Z,40.07
2018-08-22T15:00:15.377Z,39.94
2018-08-22T15:02:51.552Z,39.36
2018-08-22T15:05:27.625Z,39.32
2018-08-22T15:08:03.836Z,39.72
2018-08-22T15:10:40.802Z,39.96
2018-08-22T15:13:17.230Z,39.92
2018-08-22T15:15:53.465Z,40.54
2018-08-22T15:18:29.730Z,40.46
2018-08-22T15:21:05.832Z,39.85
2018-08-22T15:23:42.204Z,39.94
2018-08-22T15:26:18.409Z,39.92
2018-08-22T15:28:54.625Z,40.43
2018-08-22T15:31:30.680Z,39.88
2018-08-22T15:34:06.708Z,39.95
2018-08-22T15:36:40.779Z,40.04
2018-08-22T15:39:17.092Z,39.31
2018-08-22T15:41:53.689Z,39.78
2018-08-22T15:44:30.150Z,40.07
2018-08-22T15:47:06.434Z,39.78
2018-08-22T15:49:42.630Z,39.13
2018-08-22T15:52:18.657Z,39.74
2018-08-22T15:55:25.357Z,40.12
2018-08-22T15:58:07.459Z,40.04
2018-08-22T16:00:49.180Z,40.06
2018-08-22T16:03:26.632Z,39.42
2018-08-22T16:06:02.633Z,39.70
2018-08-22T16:08:38.757Z,39.88
2018-08-22T16:11:15.144Z,39.98
2018-08-22T16:13:51.197Z,40.31
2018-08-22T16:16:27.443Z,40.09
2018-08-22T16:19:03.705Z,39.73
2018-08-22T16:21:41.469Z,39.71
2018-08-22T16:24:17.903Z,40.34
2018-08-22T16:26:54.657Z,39.70
2018-08-22T16:29:31.305Z,39.70
2018-08-22T16:32:07.801Z,40.24
2018-08-22T16:34:44.748Z,39.07
2018-08-22T16:37:21.127Z,40.14
2018-08-22T16:39:57.590Z,40.30
2018-08-22T16:42:37.287Z,39.27
2018-08-22T16:45:14.533Z,40.26
2018-08-22T16:47:51.491Z,39.56
2018-08-22T16:50:28.659Z,39.65
2018-08-22T16:53:04.828Z,39.36
2018-08-22T16:55:41.683Z,39.57
2018-08-22T16:58:17.934Z,39.18
2018-08-22T17:00:54.831Z,39.55
2018-08-22T17:03:31.603Z,40.21
2018-08-22T17:06:12.146Z,40.13
2018-08-22T17:08:48.283Z,39.50
2018-08-22T17:11:24.797Z,39.28
2018-08-22T17:14:02.135Z,38.92
2018-08-22T17:16:38.757Z,39.70
2018-08-22T17:19:15.664Z,39.14
2018-08-22T17:21:52.511Z,39.61
2018-08-22T17:24:28.696Z,39.12
2018-08-22T17:27:04.713Z,39.70
2018-08-22T17:29:41.266Z,38.74
2018-08-22T17:32:18.277Z,38.81
2018-08-22T17:34:54.824Z,39.57
2018-08-22T17:37:31.278Z,38.87
2018-08-22T17:40:07.493Z,38.90
2018-08-22T17:42:44.037Z,39.09
2018-08-22T17:45:32.983Z,39.40
2018-08-22T17:48:09.853Z,39.55
2018-08-22T17:50:46.220Z,39.42
2018-08-22T17:53:22.699Z,39.07
2018-08-22T17:55:59.185Z,40.01
2018-08-22T17:58:35.826Z,39.62
2018-08-22T18:01:12.326Z,39.37
2018-08-22T18:03:48.728Z,39.44
2018-08-22T18:06:25.351Z,39.26
2018-08-22T18:09:02.134Z,39.94
2018-08-22T18:11:38.780Z,38.99
2018-08-22T18:14:15.286Z,39.60
2018-08-22T18:16:55.745Z,39.10
2018-08-22T18:19:32.307Z,39.35
2018-08-22T18:22:08.874Z,38.89
2018-08-22T18:24:49.063Z,39.35
2018-08-22T18:27:25.916Z,39.28
2018-08-22T18:30:02.541Z,39.33
2018-08-22T18:32:38.850Z,38.74
2018-08-22T18:35:16.018Z,39.43
2018-08-22T18:37:52.529Z,39.25
2018-08-22T18:40:32.884Z,38.95
2018-08-22T18:50:08.168Z,39.68
2018-08-22T18:52:45.130Z,39.04
2018-08-22T18:55:21.674Z,38.67
2018-08-22T18:57:58.846Z,38.62
2018-08-22T19:00:38.554Z,38.65
2018-08-22T19:03:15.456Z,39.43
2018-08-22T19:05:51.546Z,39.15
2018-08-22T19:08:27.618Z,39.76
2018-08-22T19:11:03.762Z,38.65
2018-08-22T19:13:40.133Z,39.13
2018-08-22T19:16:16.485Z,39.33
2018-08-22T19:18:52.704Z,39.46
2018-08-22T19:21:29.461Z,39.86
2018-08-22T19:24:06.720Z,39.56
2018-08-22T19:26:42.764Z,38.72
2018-08-22T19:29:18.737Z,38.91
2018-08-22T19:31:58.991Z,39.36
2018-08-22T19:34:35.558Z,39.20
2018-08-22T19:37:12.151Z,38.45
2018-08-22T19:40:01.225Z,38.85
2018-08-22T19:42:38.516Z,39.11
2018-08-22T19:45:15.492Z,38.52
2018-08-22T19:47:51.654Z,39.62
2018-08-22T19:50:27.739Z,38.69
2018-08-22T19:53:03.738Z,38.76
2018-08-22T19:55:40.727Z,39.01
2018-08-22T19:58:21.778Z,39.01
2018-08-22T20:00:58.865Z,39.66
2018-08-22T20:03:37.551Z,39.62
2018-08-22T20:06:13.548Z,39.00
2018-08-22T20:08:49.721Z,39.51
2018-08-22T20:11:25.893Z,39.30
2018-08-22T20:14:07.721Z,38.84
2018-08-22T20:16:44.557Z,38.79
2018-08-22T20:19:20.896Z,38.85
2018-08-22T20:21:57.294Z,38.22
2018-08-22T20:24:33.572Z,39.08
2018-08-22T20:27:09.558Z,38.81
2018-08-22T20:29:45.508Z,38.61
2018-08-22T20:32:27.963Z,38.86
2018-08-22T20:35:05.556Z,38.21
2018-08-22T20:37:41.683Z,39.30
2018-08-22T20:40:18.390Z,38.91
2018-08-22T20:42:54.402Z,38.23
2018-08-22T20:45:38.489Z,38.88
2018-08-22T20:48:15.235Z,39.48
2018-08-22T20:50:51.484Z,38.78
2018-08-22T20:53:27.530Z,39.13
2018-08-22T20:56:03.541Z,38.67
2018-08-22T20:58:39.684Z,38.98
2018-08-22T21:01:15.724Z,39.07
2018-08-22T21:03:52.329Z,39.41
2018-08-22T21:06:28.565Z,38.85
2018-08-22T21:09:04.565Z,39.35
2018-08-22T21:11:42.756Z,38.77
2018-08-22T21:14:19.428Z,38.86
2018-08-22T21:16:55.744Z,39.52
2018-08-22T21:19:31.785Z,38.90
2018-08-22T21:22:11.921Z,38.92
2018-08-22T21:24:47.952Z,38.24
2018-08-22T21:27:24.430Z,38.73
2018-08-22T21:30:00.403Z,39.03
2018-08-22T21:32:36.754Z,38.41
2018-08-22T21:35:19.617Z,39.11
2018-08-22T21:38:01.015Z,38.79
2018-08-22T21:40:37.438Z,38.78
2018-08-22T21:43:15.520Z,38.39
2018-08-22T21:45:53.952Z,38.14
2018-08-22T21:48:29.786Z,38.48
2018-08-22T21:51:06.343Z,39.12
2018-08-22T21:53:42.762Z,39.37
2018-08-22T21:56:19.984Z,38.82
2018-08-22T21:58:56.448Z,38.75
2018-08-22T22:01:36.706Z,38.64
2018-08-22T22:04:19.178Z,38.95
2018-08-22T22:06:55.497Z,39.35
2018-08-22T22:09:31.900Z,38.60
2018-08-22T22:12:11.921Z,38.58
2018-08-22T22:14:52.170Z,38.97
2018-08-22T22:17:28.544Z,38.72
2018-08-22T22:20:04.765Z,39.09
2018-08-22T22:22:40.599Z,38.65
2018-08-22T22:25:16.708Z,38.39
2018-08-22T22:27:52.796Z,38.93
2018-08-22T22:30:28.946Z,39.21
2018-08-22T22:33:04.980Z,38.10
2018-08-22T22:35:41.933Z,38.72
2018-08-22T22:38:18.086Z,38.12
2018-08-22T22:40:53.799Z,38.09
2018-08-22T22:43:30.784Z,39.14
2018-08-22T22:46:06.914Z,38.23
2018-08-22T22:48:45.752Z,38.16
2018-08-22T22:51:21.581Z,39.44
2018-08-22T22:53:57.721Z,38.74
2018-08-22T22:56:33.575Z,38.62
2018-08-22T22:59:09.634Z,38.11
2018-08-22T23:01:46.569Z,38.61
2018-08-22T23:04:22.627Z,38.73
2018-08-22T23:07:06.300Z,38.05
2018-08-22T23:09:57.548Z,39.11
2018-08-22T23:12:49.076Z,38.50
2018-08-22T23:15:33.012Z,38.25
2018-08-22T23:18:09.496Z,38.63
2018-08-22T23:20:47.004Z,38.43
2018-08-22T23:23:36.784Z,38.65
2018-08-22T23:26:18.608Z,38.82
2018-08-22T23:28:54.394Z,38.82
2018-08-22T23:31:30.380Z,39.30
2018-08-22T23:34:06.788Z,38.82
2018-08-22T23:36:43.030Z,38.90
2018-08-22T23:39:19.793Z,38.49
2018-08-22T23:41:55.850Z,38.73
2018-08-22T23:44:31.811Z,39.19
2018-08-22T23:47:07.967Z,38.54
2018-08-22T23:49:47.966Z,38.44
2018-08-22T23:52:24.819Z,38.64
2018-08-22T23:55:00.842Z,39.32
2018-08-22T23:57:36.809Z,38.65
